Time;durP1;ratioP1;P1;durP2;ratioP2;P2;SDS_P1;SDS_P2;PMS_P1;PMS_P2;Temp;Humidity;BMP_temperature;BMP_pressure;BME280_temperature;BME280_humidity;BME280_pressure;Samples;Min_cycle;Max_cycle;Signal;HPM_P1;HPM_P2
2022/05/13 00:01:55;;;;;;;11.32;3.03;;;;;;;11.49;63.65;101037.25;5046147;28;20117;-79
2022/05/13 00:04:22;;;;;;;4.88;2.50;;;;;;;11.46;64.20;101028.53;5050209;28;20152;-80
2022/05/13 00:06:48;;;;;;;4.32;2.80;;;;;;;11.42;64.04;101028.56;5035038;28;20080;-81
2022/05/13 00:09:15;;;;;;;5.43;3.30;;;;;;;11.38;64.35;101037.34;5047771;28;20044;-82
2022/05/13 00:11:41;;;;;;;5.22;3.17;;;;;;;11.37;64.45;101029.50;5065270;28;20049;-80
2022/05/13 00:14:10;;;;;;;5.78;3.63;;;;;;;11.38;65.15;101034.72;5064357;28;20782;-81
2022/05/13 00:16:37;;;;;;;4.13;3.17;;;;;;;11.37;64.86;101032.97;5070000;28;20130;-80
2022/05/13 00:19:06;;;;;;;6.57;3.22;;;;;;;11.38;65.09;101033.81;5067121;28;20407;-80
2022/05/13 00:21:33;;;;;;;6.15;3.88;;;;;;;11.36;65.47;101025.97;5080864;28;20041;-81
2022/05/13 00:24:00;;;;;;;5.28;4.43;;;;;;;11.33;65.44;101033.88;5046197;28;20102;-81
2022/05/13 00:26:27;;;;;;;7.15;5.38;;;;;;;11.28;65.49;101033.03;5047455;28;20214;-80
2022/05/13 00:28:53;;;;;;;10.85;5.80;;;;;;;11.28;65.63;101035.66;5044567;28;20045;-81
2022/05/13 00:31:20;;;;;;;8.93;5.70;;;;;;;11.27;65.84;101036.50;5036589;28;20628;-80
2022/05/13 00:33:46;;;;;;;7.72;5.78;;;;;;;11.28;65.35;101026.88;5061961;28;20052;-78
2022/05/13 00:36:13;;;;;;;6.90;5.60;;;;;;;11.25;65.47;101027.78;5067852;28;20036;-83
2022/05/13 00:38:39;;;;;;;9.75;5.20;;;;;;;11.19;65.74;101026.06;5067320;28;20055;-79
2022/05/13 00:41:06;;;;;;;6.53;4.40;;;;;;;11.16;65.70;101025.22;5055929;28;20047;-82
2022/05/13 00:43:52;;;;;;;6.43;4.15;;;;;;;11.13;65.92;101031.34;5070256;28;20539;-80
2022/05/13 00:46:22;;;;;;;5.80;4.38;;;;;;;11.13;66.23;101031.34;5066513;28;20052;-81
2022/05/13 00:48:49;;;;;;;4.47;4.05;;;;;;;11.11;65.73;101026.97;5061647;28;20486;-79
2022/05/13 00:51:26;;;;;;;4.85;3.67;;;;;;;11.08;66.28;101036.63;5067148;28;20139;-78
2022/05/13 00:53:55;;;;;;;5.38;4.30;;;;;;;11.03;66.19;101027.91;5035733;28;20098;-80
2022/05/13 00:56:22;;;;;;;4.40;4.00;;;;;;;11.01;66.32;101034.03;5067555;28;20052;-81
2022/05/13 00:58:54;;;;;;;7.13;5.13;;;;;;;10.98;66.69;101027.06;5068608;28;20089;-78
2022/05/13 01:01:21;;;;;;;5.78;4.38;;;;;;;10.94;66.65;101025.34;5065802;28;20098;-78
2022/05/13 01:03:49;;;;;;;6.07;3.10;;;;;;;10.89;66.96;101019.25;5069575;28;20045;-80
2022/05/13 01:06:21;;;;;;;8.32;4.90;;;;;;;10.84;67.24;101023.63;5054422;28;20074;-81
2022/05/13 01:08:49;;;;;;;5.90;4.28;;;;;;;10.80;67.55;101024.53;5085441;28;20041;-80
2022/05/13 01:11:19;;;;;;;6.90;4.72;;;;;;;10.76;67.53;101016.66;5053097;28;20124;-80
2022/05/13 01:13:50;;;;;;;8.20;3.95;;;;;;;10.74;67.66;101022.78;5085337;28;20059;-77
2022/05/13 01:16:17;;;;;;;5.65;4.25;;;;;;;10.70;67.81;101016.72;5068061;28;20047;-79
2022/05/13 01:18:43;;;;;;;5.80;4.55;;;;;;;10.68;68.19;101028.06;5052711;28;20048;-80
2022/05/13 01:21:15;;;;;;;4.63;4.03;;;;;;;10.65;68.21;101022.81;5038193;28;20121;-78
2022/05/13 01:23:45;;;;;;;5.68;4.60;;;;;;;10.56;68.65;101008.03;5040181;28;20133;-79
2022/05/13 01:26:25;;;;;;;5.65;4.07;;;;;;;10.53;69.03;101011.53;5069621;28;20045;-79
2022/05/13 01:28:55;;;;;;;3.75;3.22;;;;;;;10.48;68.76;101008.06;5083420;28;20044;-78
2022/05/13 01:31:30;;;;;;;5.00;4.20;;;;;;;10.48;69.10;101015.03;5055561;28;20047;-79
2022/05/13 01:33:59;;;;;;;5.30;4.32;;;;;;;10.50;69.50;101008.91;5066658;28;20102;-82
2022/05/13 01:36:27;;;;;;;4.65;4.28;;;;;;;10.59;69.11;101005.41;5068614;28;20131;-81
2022/05/13 01:38:53;;;;;;;6.43;3.58;;;;;;;10.72;68.53;101001.84;5049537;28;20778;-79
2022/05/13 01:41:20;;;;;;;3.72;3.33;;;;;;;10.85;68.52;101010.53;5056854;28;20040;-81
2022/05/13 01:43:49;;;;;;;4.20;3.40;;;;;;;10.96;67.78;101002.59;5054174;28;20044;-78
2022/05/13 01:46:17;;;;;;;8.05;3.55;;;;;;;11.00;67.57;101006.09;5035336;28;20036;-82
2022/05/13 01:48:44;;;;;;;7.90;4.28;;;;;;;10.95;67.84;100990.41;5033138;28;20045;-79
2022/05/13 01:51:10;;;;;;;3.60;3.25;;;;;;;10.88;68.03;101005.25;5051264;28;20510;-81
2022/05/13 01:53:38;;;;;;;4.80;3.63;;;;;;;10.84;68.15;100995.69;5037211;28;20060;-81
2022/05/13 01:56:05;;;;;;;6.43;4.25;;;;;;;10.83;68.24;100996.56;5065109;28;20051;-80
2022/05/13 01:58:32;;;;;;;3.92;3.55;;;;;;;10.85;68.36;100994.81;5080225;28;20500;-79
2022/05/13 02:01:00;;;;;;;7.22;3.75;;;;;;;10.86;68.29;100988.72;5036341;28;20045;-80
2022/05/13 02:06:25;;;;;;;6.95;3.63;;;;;;;10.80;68.14;100986.09;5015475;28;20067;-78
2022/05/13 02:08:55;;;;;;;4.25;3.85;;;;;;;10.79;68.63;100993.97;5049286;28;20114;-80
2022/05/13 02:11:24;;;;;;;4.13;3.65;;;;;;;10.78;68.67;100989.59;5048038;28;20137;-77
2022/05/13 02:13:52;;;;;;;5.05;3.75;;;;;;;10.81;68.35;100989.59;5030407;28;20052;-79
2022/05/13 02:16:20;;;;;;;5.53;3.58;;;;;;;10.80;68.41;100988.72;5063727;28;20055;-77
2022/05/13 02:18:46;;;;;;;5.10;4.60;;;;;;;10.75;68.79;100994.00;5029690;28;20138;-79
2022/05/13 02:21:14;;;;;;;3.58;3.28;;;;;;;10.69;68.74;100993.13;5036581;28;20075;-78
2022/05/13 02:23:41;;;;;;;8.27;4.88;;;;;;;10.64;69.20;100992.28;5034291;28;20044;-78
2022/05/13 02:26:12;;;;;;;8.35;5.00;;;;;;;10.56;69.20;100987.94;5034156;28;20100;-79
2022/05/13 02:28:39;;;;;;;4.30;3.90;;;;;;;10.45;69.84;100991.47;5065524;28;20059;-78
2022/05/13 02:31:06;;;;;;;4.00;3.55;;;;;;;10.34;70.05;100991.47;5041786;28;20438;-81
2022/05/13 02:33:33;;;;;;;5.55;4.32;;;;;;;10.27;70.55;100993.22;5069163;28;20063;-78
2022/05/13 02:36:01;;;;;;;5.22;4.15;;;;;;;10.19;70.48;100988.00;5063050;28;20047;-78
2022/05/13 02:38:28;;;;;;;6.60;5.13;;;;;;;10.15;71.32;100986.28;5062207;28;20494;-80
2022/05/13 02:41:13;;;;;;;5.95;3.55;;;;;;;10.12;70.99;100988.91;5066818;28;20044;-79
2022/05/13 02:43:54;;;;;;;5.63;4.85;;;;;;;10.06;71.88;100988.91;5075851;28;20121;-77
2022/05/13 02:46:27;;;;;;;5.03;4.57;;;;;;;10.03;72.03;100991.53;5050051;28;20135;-79
2022/05/13 02:48:55;;;;;;;6.10;4.63;;;;;;;10.01;72.53;100982.81;5046880;28;20518;-78
2022/05/13 02:51:23;;;;;;;6.25;5.43;;;;;;;10.01;72.90;100988.03;5060296;28;20045;-78
2022/05/13 02:53:49;;;;;;;6.63;4.95;;;;;;;9.99;72.82;100990.66;5063730;28;20524;-78
2022/05/13 02:56:16;;;;;;;5.03;4.55;;;;;;;9.97;72.84;100981.06;5031623;28;20056;-78
2022/05/13 02:58:42;;;;;;;7.90;4.40;;;;;;;9.98;73.43;100994.16;5032943;28;20041;-79
2022/05/13 03:01:12;;;;;;;6.78;3.97;;;;;;;10.03;73.07;100986.31;5050495;28;20128;-79
2022/05/13 03:03:41;;;;;;;4.85;3.78;;;;;;;10.10;72.81;100982.78;5092192;27;20040;-80
2022/05/13 03:06:08;;;;;;;5.43;4.55;;;;;;;10.23;72.37;100987.16;5034733;28;20044;-79
2022/05/13 03:08:34;;;;;;;6.32;4.05;;;;;;;10.36;71.90;100976.66;5034657;28;20367;-79
2022/05/13 03:11:03;;;;;;;5.18;4.75;;;;;;;10.46;71.16;100970.53;5065798;28;20071;-79
2022/05/13 03:13:30;;;;;;;6.95;4.22;;;;;;;10.51;71.28;100975.78;5061901;28;20193;-78
2022/05/13 03:16:04;;;;;;;4.38;3.97;;;;;;;10.55;70.98;100977.50;5083858;28;20033;-77
2022/05/13 03:18:31;;;;;;;5.90;4.22;;;;;;;10.53;71.10;100972.28;5065327;28;20102;-80
2022/05/13 03:20:58;;;;;;;7.53;4.95;;;;;;;10.47;70.94;100968.78;5047027;28;20049;-77
2022/05/13 03:23:25;;;;;;;6.20;3.78;;;;;;;10.37;71.21;100968.81;5032424;28;20052;-79
2022/05/13 03:25:51;;;;;;;4.78;3.90;;;;;;;10.27;71.84;100970.56;5049234;28;20075;-81
2022/05/13 03:28:18;;;;;;;6.68;4.60;;;;;;;10.18;72.23;100967.09;5049411;28;20040;-78
2022/05/13 03:30:44;;;;;;;7.00;4.45;;;;;;;10.10;72.75;100967.09;5072739;28;20517;-77
2022/05/13 03:33:12;;;;;;;5.53;4.88;;;;;;;10.05;72.87;100967.13;5032384;28;20050;-80
2022/05/13 03:35:39;;;;;;;5.28;4.70;;;;;;;10.00;73.20;100958.41;5034435;28;20128;-79
2022/05/13 03:38:08;;;;;;;6.50;4.20;;;;;;;9.95;73.66;100968.00;5049326;28;20542;-79
2022/05/13 03:40:36;;;;;;;6.93;4.95;;;;;;;9.92;73.84;100968.00;5066633;28;20040;-81
2022/05/13 03:43:04;;;;;;;6.07;5.25;;;;;;;9.86;73.64;100960.19;5049400;28;20529;-81
2022/05/13 03:45:34;;;;;;;6.78;4.68;;;;;;;9.81;75.14;100970.63;5032578;28;20044;-79
2022/05/13 03:48:01;;;;;;;8.15;4.90;;;;;;;9.78;74.37;100965.41;5080721;28;20048;-80
2022/05/13 03:50:28;;;;;;;8.73;5.43;;;;;;;9.79;75.16;100968.88;5064571;28;20112;-79
2022/05/13 03:52:55;;;;;;;4.28;3.90;;;;;;;9.80;74.46;100975.88;5060599;28;20056;-78
2022/05/13 03:55:22;;;;;;;9.00;4.70;;;;;;;9.79;74.80;100972.41;5051372;28;20056;-80
2022/05/13 03:57:49;;;;;;;11.23;4.40;;;;;;;9.79;74.93;100966.28;5077764;28;20410;-79
2022/05/13 04:00:16;;;;;;;5.82;4.28;;;;;;;9.87;74.67;100968.00;5054152;28;20045;-81
2022/05/13 04:02:43;;;;;;;6.30;4.32;;;;;;;9.91;74.51;100961.03;5033978;28;20171;-80
2022/05/13 04:10:41;;;;;;;9.57;3.92;;;;;;;10.08;73.73;100956.66;5067509;28;20021;-79
2022/05/13 04:16:06;;;;;;;4.68;3.50;;;;;;;10.25;71.98;100966.22;5031326;28;20037;-80
2022/05/13 04:18:45;;;;;;;3.92;3.30;;;;;;;10.42;71.02;100964.44;5039095;28;20048;-82
2022/05/13 04:21:19;;;;;;;3.55;3.20;;;;;;;10.58;70.46;100967.00;5035338;28;20047;-80
2022/05/13 04:23:49;;;;;;;;;;;;;;;10.72;69.86;100972.19;5056142;28;20055;-80
2022/05/13 04:26:16;;;;;;;4.32;3.13;;;;;;;10.82;69.35;100971.28;5072846;28;19925;-80
2022/05/13 04:28:46;;;;;;;5.80;3.58;;;;;;;10.88;68.92;100979.06;5027845;28;20053;-81
2022/05/13 04:31:20;;;;;;;6.13;4.28;;;;;;;10.98;68.84;100979.06;5075685;28;20083;-80
2022/05/13 04:33:50;;;;;;;4.75;3.88;;;;;;;11.08;68.57;100981.59;5042389;28;20059;-80
2022/05/13 04:36:19;;;;;;;6.47;5.13;;;;;;;11.17;68.49;100975.44;5026367;28;20057;-79
2022/05/13 04:38:47;;;;;;;6.28;4.50;;;;;;;11.21;68.37;100971.91;5055405;28;20046;-81
2022/05/13 04:44:06;;;;;;;5.03;4.60;;;;;;;11.23;69.15;100971.91;5042794;28;20040;-83
2022/05/13 04:46:33;;;;;;;6.80;6.00;;;;;;;11.25;69.34;100978.88;5043138;28;20033;-81
2022/05/13 04:49:00;;;;;;;6.97;5.70;;;;;;;11.30;69.40;100980.59;5057937;28;20487;-80
2022/05/13 04:51:27;;;;;;;7.32;6.07;;;;;;;11.36;69.50;100972.69;5027518;28;20049;-79
2022/05/13 04:53:56;;;;;;;7.53;4.95;;;;;;;11.40;69.28;100974.41;5058227;28;20049;-78
2022/05/13 04:56:25;;;;;;;5.82;4.72;;;;;;;11.49;69.16;100981.34;5060096;28;20071;-78
2022/05/13 04:58:52;;;;;;;7.72;5.85;;;;;;;11.55;68.63;100983.91;5057647;28;20048;-79
2022/05/13 05:01:21;;;;;;;8.98;5.55;;;;;;;11.60;68.80;100989.97;5061932;28;20041;-82
2022/05/13 05:03:49;;;;;;;11.18;6.47;;;;;;;11.66;68.79;100983.84;5043238;28;20040;-82
2022/05/13 05:06:17;;;;;;;8.05;5.93;;;;;;;11.68;68.33;100964.59;5030840;28;20122;-79
2022/05/13 05:08:45;;;;;;;9.00;4.93;;;;;;;11.71;67.95;100969.78;5043190;28;20392;-79
2022/05/13 05:11:14;;;;;;;16.38;5.32;;;;;;;11.75;68.19;100974.13;5047662;28;20064;-78
2022/05/13 05:13:47;;;;;;;5.55;4.45;;;;;;;11.78;67.77;100975.84;5047521;28;20064;-79
2022/05/13 05:16:16;;;;;;;7.18;5.05;;;;;;;11.84;67.83;100973.19;5046006;28;20040;-79
2022/05/13 05:18:43;;;;;;;6.38;5.00;;;;;;;11.92;67.30;100970.47;5043638;28;20049;-82
2022/05/13 05:21:11;;;;;;;6.25;4.97;;;;;;;12.02;67.17;100982.66;5046636;28;20048;-81
2022/05/13 05:23:42;;;;;;;5.88;4.28;;;;;;;12.14;66.77;100986.91;5062326;28;20048;-79
2022/05/13 05:26:08;;;;;;;5.45;4.47;;;;;;;12.29;66.28;100985.03;5078328;28;20051;-79
2022/05/13 05:28:38;;;;;;;6.93;5.10;;;;;;;12.43;65.67;100987.50;5049901;28;20416;-79
2022/05/13 05:31:04;;;;;;;7.75;4.95;;;;;;;12.52;64.95;100982.13;5057831;28;20053;-82
2022/05/13 05:33:31;;;;;;;7.18;4.63;;;;;;;12.56;64.78;101002.22;5047171;28;20048;-82
2022/05/13 05:35:58;;;;;;;7.63;5.03;;;;;;;12.61;64.40;101002.19;5048962;28;20122;-82
2022/05/13 05:38:25;;;;;;;9.65;4.97;;;;;;;12.69;64.32;101005.56;5046946;28;20052;-80
2022/05/13 05:40:52;;;;;;;5.38;4.45;;;;;;;12.71;64.19;101016.91;5032426;28;20053;-81
2022/05/13 05:43:21;;;;;;;5.80;4.35;;;;;;;12.70;63.92;101023.94;5063755;28;20049;-77
2022/05/13 05:45:47;;;;;;;7.55;5.03;;;;;;;12.72;63.93;101024.81;5024444;28;20053;-81
2022/05/13 05:48:21;;;;;;;4.82;3.47;;;;;;;12.78;63.15;101018.59;5065807;28;20880;-79
2022/05/13 05:50:55;;;;;;;6.53;3.65;;;;;;;12.87;62.20;101023.72;5097847;27;20048;-80
2022/05/13 05:58:48;;;;;;;8.27;2.88;;;;;;;12.93;59.88;101037.69;5058219;28;20399;-78
2022/05/13 06:01:16;;;;;;;6.32;2.35;;;;;;;12.90;58.96;101030.72;5066210;28;20045;-79
2022/05/13 06:03:44;;;;;;;5.85;3.30;;;;;;;12.94;58.84;101039.44;5090108;28;20032;-82
2022/05/13 06:06:13;;;;;;;3.63;1.92;;;;;;;13.02;58.45;101042.81;5071174;28;20055;-78
2022/05/13 06:08:41;;;;;;;7.57;3.25;;;;;;;13.12;57.96;101040.94;5062841;28;20350;-78
2022/05/13 06:11:09;;;;;;;5.65;3.60;;;;;;;13.19;58.14;101037.34;5029682;28;20052;-79
2022/05/13 06:13:36;;;;;;;6.55;2.40;;;;;;;13.33;57.40;101042.41;5047768;28;20045;-80
2022/05/13 06:16:02;;;;;;;3.58;2.17;;;;;;;13.38;56.80;101049.38;5046037;28;20045;-79
2022/05/13 06:18:32;;;;;;;7.47;3.33;;;;;;;13.44;57.41;101051.06;5023641;28;20056;-81
2022/05/13 06:21:00;;;;;;;2.22;1.92;;;;;;;13.54;56.91;101047.38;5060965;28;20045;-81
2022/05/13 06:23:26;;;;;;;8.18;2.30;;;;;;;13.68;56.16;101039.28;5025228;28;20061;-82
2022/05/13 06:25:53;;;;;;;3.83;2.83;;;;;;;13.60;56.14;101046.44;5028348;28;20049;-80
2022/05/13 06:28:20;;;;;;;6.47;1.75;;;;;;;13.56;56.65;101042.13;5045217;28;20082;-83
2022/05/13 06:30:46;;;;;;;4.00;2.13;;;;;;;13.62;56.05;101039.38;5044906;28;20381;-80
2022/05/13 06:33:13;;;;;;;11.85;2.53;;;;;;;13.64;56.17;101044.63;5030528;28;20041;-82
2022/05/13 06:35:41;;;;;;;3.72;2.50;;;;;;;13.75;56.29;101042.69;5060572;28;20124;-82
2022/05/13 06:38:09;;;;;;;8.88;3.10;;;;;;;13.84;56.07;101047.78;5028798;28;20041;-78
2022/05/13 06:40:36;;;;;;;5.70;2.72;;;;;;;13.86;55.91;101048.66;5029099;28;20045;-80
2022/05/13 06:43:03;;;;;;;3.65;1.73;;;;;;;13.94;56.09;101055.56;5058871;28;20052;-80
2022/05/13 06:45:30;;;;;;;5.40;2.45;;;;;;;14.02;55.80;101059.78;5074240;28;20436;-79
2022/05/13 06:47:56;;;;;;;6.97;2.53;;;;;;;14.01;56.14;101055.41;5044609;28;20040;-80
2022/05/13 06:50:23;;;;;;;7.13;2.67;;;;;;;13.84;56.51;101055.69;5043089;28;20051;-79
2022/05/13 06:52:50;;;;;;;4.10;3.10;;;;;;;13.66;57.01;101054.25;5026002;28;20065;-80
2022/05/13 06:55:19;;;;;;;5.05;2.67;;;;;;;13.56;57.64;101044.75;5044336;28;20049;-79
2022/05/13 06:57:46;;;;;;;3.30;3.08;;;;;;;13.59;57.63;101049.94;5041384;28;20090;-80
2022/05/13 07:00:13;;;;;;;8.82;2.63;;;;;;;13.65;57.92;101060.38;5043171;28;20438;-79
2022/05/13 07:02:40;;;;;;;6.55;3.70;;;;;;;13.67;57.92;101050.69;5043010;28;20422;-81
2022/05/13 07:05:10;;;;;;;4.65;3.38;;;;;;;13.70;58.07;101047.16;5058421;28;20083;-81
2022/05/13 07:07:36;;;;;;;8.90;3.10;;;;;;;13.72;57.78;101050.63;5056363;28;20045;-81
2022/05/13 07:10:04;;;;;;;9.80;3.47;;;;;;;13.81;57.72;101045.22;5061012;28;20051;-82
2022/05/13 07:12:31;;;;;;;6.28;3.42;;;;;;;13.94;57.20;101039.78;5023631;28;20493;-80
2022/05/13 07:14:58;;;;;;;7.95;3.70;;;;;;;14.01;57.15;101049.28;5047522;28;20439;-80
2022/05/13 07:17:25;;;;;;;4.97;2.60;;;;;;;14.04;57.18;101052.75;5043606;28;20047;-79
2022/05/13 07:19:52;;;;;;;3.97;2.75;;;;;;;14.01;57.27;101051.91;5046861;28;20435;-80
2022/05/13 07:22:19;;;;;;;7.13;2.72;;;;;;;14.01;57.22;101051.91;5054903;28;20101;-84
2022/05/13 07:24:45;;;;;;;10.93;3.45;;;;;;;13.95;57.20;101052.00;5055924;28;20071;-83
2022/05/13 07:27:12;;;;;;;3.67;3.17;;;;;;;13.94;57.33;101053.78;5046082;28;20083;-81
2022/05/13 07:29:39;;;;;;;9.10;3.10;;;;;;;13.98;57.64;101050.22;5061617;28;20068;-79
2022/05/13 07:32:06;;;;;;;6.43;2.83;;;;;;;14.14;56.77;101042.91;5058215;28;20048;-79
2022/05/13 07:34:33;;;;;;;5.97;2.60;;;;;;;14.32;56.32;101051.38;5043827;28;20068;-80
2022/05/13 07:37:00;;;;;;;8.82;3.03;;;;;;;14.28;56.19;101058.47;5091576;27;20090;-79
2022/05/13 07:42:12;;;;;;;8.85;3.28;;;;;;;14.77;55.33;101054.09;5048283;28;20092;-79
2022/05/13 07:44:39;;;;;;;7.95;2.78;;;;;;;15.56;52.93;101062.94;5092402;27;20451;-78
2022/05/13 07:47:09;;;;;;;7.90;2.30;;;;;;;16.09;50.40;101053.75;5061106;28;20199;-79
2022/05/13 07:49:39;;;;;;;11.45;3.08;;;;;;;16.05;50.16;101050.34;5080804;28;20206;-79
2022/05/13 07:52:07;;;;;;;5.53;2.15;;;;;;;15.70;51.36;101052.91;5080520;28;20127;-80
2022/05/13 07:54:34;;;;;;;5.28;2.30;;;;;;;15.68;51.53;101048.56;5061190;28;20093;-79
2022/05/13 07:57:00;;;;;;;6.13;2.25;;;;;;;15.86;51.89;101050.78;5063628;28;20068;-81
2022/05/13 07:59:27;;;;;;;8.07;2.58;;;;;;;15.96;50.87;101055.88;5049631;28;20417;-82
2022/05/13 08:01:54;;;;;;;5.50;2.17;;;;;;;15.69;51.78;101058.25;5048216;28;20098;-79
2022/05/13 08:04:21;;;;;;;5.88;1.98;;;;;;;15.48;52.58;101056.97;5081518;28;20132;-80
2022/05/13 08:06:50;;;;;;;7.70;2.08;;;;;;;15.36;52.93;101058.97;5045452;28;20123;-80
2022/05/13 08:09:18;;;;;;;6.22;1.42;;;;;;;15.44;53.10;101057.94;5059948;28;20048;-80
2022/05/13 08:11:44;;;;;;;7.35;3.42;;;;;;;15.94;52.09;101062.94;5045876;28;20048;-79
2022/05/13 08:14:12;;;;;;;15.23;2.42;;;;;;;16.01;51.75;101060.13;5046333;28;20069;-80
2022/05/13 08:16:41;;;;;;;6.57;1.80;;;;;;;16.05;51.74;101060.91;5034146;28;20969;-80
2022/05/13 08:19:08;;;;;;;7.35;2.15;;;;;;;15.74;52.23;101064.28;5089397;28;20139;-79
2022/05/13 08:21:35;;;;;;;6.47;1.95;;;;;;;15.67;52.78;101060.03;5058861;28;20079;-80
2022/05/13 08:24:02;;;;;;;11.75;2.63;;;;;;;15.68;52.96;101069.69;5060427;28;20182;-80
2022/05/13 08:26:28;;;;;;;8.02;3.05;;;;;;;15.79;52.68;101069.47;5028960;28;20502;-80
2022/05/13 08:28:55;;;;;;;6.80;2.40;;;;;;;16.15;51.87;101066.81;5079655;28;20045;-81
2022/05/13 08:31:21;;;;;;;10.65;3.15;;;;;;;16.32;51.36;101066.38;5036280;28;20570;-79
2022/05/13 08:33:48;;;;;;;10.55;1.73;;;;;;;16.42;51.48;101075.81;5059581;28;20571;-80
2022/05/13 08:36:15;;;;;;;7.05;2.47;;;;;;;16.57;50.14;101090.41;5090066;28;20586;-79
2022/05/13 08:38:43;;;;;;;12.57;3.35;;;;;;;16.28;51.15;101084.13;5073062;28;20511;-80
2022/05/13 08:41:09;;;;;;;6.60;2.40;;;;;;;16.13;51.92;101085.34;5055999;28;20048;-79
2022/05/13 08:43:43;;;;;;;9.15;2.85;;;;;;;16.24;51.72;101084.22;5044640;28;20052;-79
2022/05/13 08:46:34;;;;;;;12.05;2.10;;;;;;;16.38;51.45;101080.28;5026822;28;20110;-79
2022/05/13 08:49:09;;;;;;;4.95;1.85;;;;;;;16.17;51.74;101094.94;5060283;28;20045;-79
2022/05/13 08:55:19;;;;;;;12.73;2.70;;;;;;;15.63;53.37;101101.47;5058342;28;20056;-77
2022/05/13 08:57:47;;;;;;;8.25;1.77;;;;;;;15.39;53.84;101111.66;5032088;28;20418;-79
2022/05/13 09:00:42;;;;;;;8.07;2.70;;;;;;;15.28;54.83;101104.88;5051883;28;20055;-81
2022/05/13 09:03:48;;;;;;;9.10;2.78;;;;;;;15.25;54.86;101104.94;5037793;28;20063;-82
2022/05/13 09:06:23;;;;;;;7.32;2.10;;;;;;;15.14;55.45;101103.41;5068130;28;20043;-80
2022/05/13 09:08:50;;;;;;;6.95;2.20;;;;;;;15.11;55.81;101113.16;5049882;28;20106;-83
2022/05/13 09:11:35;;;;;;;9.18;2.65;;;;;;;15.16;55.56;101100.72;5048384;28;20045;-82
2022/05/13 09:14:39;;;;;;;4.85;2.13;;;;;;;15.71;54.30;101103.94;5063954;28;20145;-83
2022/05/13 09:18:00;;;;;;;6.53;3.25;;;;;;;16.99;50.80;101097.22;5051975;28;20125;-81
2022/05/13 09:20:30;;;;;;;7.87;2.23;;;;;;;17.85;48.22;101086.63;5030238;28;20482;-81
2022/05/13 09:23:00;;;;;;;4.05;2.47;;;;;;;18.10;47.16;101092.94;5061268;28;20153;-81
2022/05/13 09:26:05;;;;;;;7.43;2.05;;;;;;;18.16;47.36;101100.66;5044928;28;20044;-83
2022/05/13 09:28:36;;;;;;;6.15;2.03;;;;;;;18.51;47.05;101107.44;5094207;27;20059;-83
2022/05/13 09:31:28;;;;;;;6.55;2.33;;;;;;;18.84;45.30;101103.66;5044566;28;20045;-83
2022/05/13 09:33:55;;;;;;;7.65;2.50;;;;;;;19.00;45.07;101096.00;5032122;28;20064;-82
2022/05/13 09:36:25;;;;;;;7.00;2.40;;;;;;;19.65;44.38;101090.88;5047763;28;20069;-83
2022/05/13 09:39:03;;;;;;;7.07;2.25;;;;;;;20.42;42.45;101090.38;5079785;28;20044;-82
2022/05/13 09:41:36;;;;;;;8.77;2.45;;;;;;;20.44;41.50;101074.34;5098009;27;20068;-83
2022/05/13 09:44:23;;;;;;;4.53;1.85;;;;;;;21.42;39.97;101081.47;5061781;28;20162;-81
2022/05/13 09:47:13;;;;;;;3.88;2.45;;;;;;;22.38;36.74;101072.31;5035934;28;20052;-83
2022/05/13 09:49:46;;;;;;;4.05;2.17;;;;;;;22.88;37.01;101083.94;5078548;28;20039;-82
2022/05/13 09:52:27;;;;;;;5.55;2.42;;;;;;;23.24;35.14;101072.22;5042566;28;20051;-81
2022/05/13 09:54:56;;;;;;;5.00;1.90;;;;;;;23.12;34.07;101083.56;5060515;28;20404;-81
2022/05/13 09:57:32;;;;;;;7.15;2.22;;;;;;;21.58;36.92;101084.31;5063757;28;20159;-83
2022/05/13 10:00:15;;;;;;;6.63;2.13;;;;;;;20.59;38.90;101094.94;5061429;28;20051;-84
2022/05/13 10:02:48;;;;;;;;;;;;;;;21.17;37.34;101071.97;5060407;28;20186;-82
2022/05/13 10:05:19;;;;;;;11.10;2.25;;;;;;;21.06;37.45;101085.78;5087522;27;20026;-84
2022/05/13 10:07:54;;;;;;;8.95;2.10;;;;;;;20.52;37.86;101076.66;5074979;28;20040;-81
2022/05/13 10:16:17;;;;;;;;;;;;;;;20.26;38.79;101076.88;5076740;28;20040;-81
2022/05/13 10:19:19;;;;;;;6.18;1.83;;;;;;;20.47;38.81;101071.56;5076493;28;20019;-83
2022/05/13 10:22:06;;;;;;;4.70;1.15;;;;;;;22.36;35.61;101068.91;5042714;28;20047;-82
2022/05/13 10:24:57;;;;;;;4.72;1.77;;;;;;;23.33;33.56;101075.34;5063842;28;20048;-83
2022/05/13 10:27:48;;;;;;;9.85;1.85;;;;;;;23.89;32.44;101084.59;5090427;27;20040;-82
2022/05/13 10:30:39;;;;;;;3.67;1.52;;;;;;;24.65;30.80;101090.84;5060427;28;20824;-83
2022/05/13 10:33:24;;;;;;;5.57;1.40;;;;;;;25.19;29.43;101090.19;5048857;28;20076;-82
2022/05/13 10:36:15;;;;;;;6.35;1.48;;;;;;;24.73;30.38;101082.34;5039085;28;20388;-84
2022/05/13 10:39:04;;;;;;;6.97;1.70;;;;;;;22.46;33.10;101096.81;5018372;28;20059;-82
2022/05/13 10:41:47;;;;;;;4.30;2.10;;;;;;;21.29;35.22;101100.69;5061643;28;20054;-83
2022/05/13 10:44:34;;;;;;;3.42;1.13;;;;;;;20.55;36.74;101098.69;5030131;28;20050;-81
2022/05/13 10:47:06;;;;;;;3.92;1.80;;;;;;;20.45;37.04;101097.34;5063297;28;20051;-82
2022/05/13 10:49:39;;;;;;;4.57;1.52;;;;;;;20.68;37.48;101099.00;5060134;28;20052;-82
2022/05/13 10:52:47;;;;;;;7.75;2.22;;;;;;;20.49;37.45;101104.25;5073994;28;20045;-81
2022/05/13 10:55:34;;;;;;;2.35;1.58;;;;;;;20.55;37.51;101109.31;5059062;28;20219;-85
2022/05/13 10:58:35;;;;;;;4.35;1.60;;;;;;;20.37;38.02;101110.13;5073784;28;20057;-82
2022/05/13 11:01:55;;;;;;;3.67;1.52;;;;;;;20.55;37.65;101108.47;5044691;28;20091;-84
2022/05/13 11:04:37;;;;;;;2.47;1.10;;;;;;;20.65;37.24;101112.44;5057364;28;20522;-85
2022/05/13 11:07:52;;;;;;;4.85;1.75;;;;;;;20.34;37.90;101111.09;5059549;28;20044;-81
2022/05/13 11:10:43;;;;;;;4.70;2.30;;;;;;;20.49;37.19;101105.13;5062134;28;20044;-82
2022/05/13 11:13:48;;;;;;;2.88;1.27;;;;;;;20.69;37.21;101114.03;5058531;28;20072;-82
2022/05/13 11:17:14;;;;;;;5.15;1.63;;;;;;;20.38;37.69;101112.69;5080419;28;20051;-84
2022/05/13 11:20:23;;;;;;;4.82;1.77;;;;;;;19.22;39.66;101125.25;5079343;28;20057;-84
2022/05/13 11:23:38;;;;;;;6.93;1.52;;;;;;;18.25;41.58;101124.25;5065392;28;20052;-83
2022/05/13 11:26:29;;;;;;;4.78;1.83;;;;;;;17.83;42.81;101137.91;5064222;28;20036;-83
2022/05/13 11:29:10;;;;;;;8.23;1.75;;;;;;;17.74;43.22;101131.13;5030627;28;20045;-81
2022/05/13 11:31:37;;;;;;;4.68;1.60;;;;;;;18.06;42.95;101123.97;5060628;28;20051;-83
2022/05/13 11:34:41;;;;;;;5.60;1.50;;;;;;;18.61;42.15;101154.84;5050223;28;20052;-82
2022/05/13 11:37:12;;;;;;;4.45;1.55;;;;;;;18.06;43.38;101110.72;5047095;28;20058;-82
2022/05/13 11:40:04;;;;;;;8.38;1.50;;;;;;;17.55;44.60;101136.13;5061462;28;20118;-82
2022/05/13 11:43:20;;;;;;;6.03;1.25;;;;;;;16.97;45.46;101136.03;5077179;28;20127;-84
2022/05/13 11:46:31;;;;;;;9.80;1.83;;;;;;;16.84;46.21;101139.00;5052181;28;20059;-82
2022/05/13 11:49:31;;;;;;;13.13;2.35;;;;;;;16.92;46.19;101140.59;5045775;28;20041;-82
2022/05/13 11:52:35;;;;;;;10.55;1.83;;;;;;;16.93;46.14;101132.59;5031429;28;20052;-82
2022/05/13 11:55:41;;;;;;;7.32;1.70;;;;;;;17.10;46.13;101137.41;5080370;28;20071;-82
2022/05/13 11:58:54;;;;;;;9.27;1.80;;;;;;;17.78;44.75;101123.94;5049938;28;20040;-84
2022/05/13 12:01:36;;;;;;;3.30;1.02;;;;;;;18.39;43.25;101122.91;5047122;28;20052;-82
2022/05/13 12:04:12;;;;;;;4.40;1.98;;;;;;;18.28;43.46;101132.06;5045913;28;20056;-83
2022/05/13 12:06:50;;;;;;;4.68;1.75;;;;;;;17.85;44.11;101146.69;5043303;28;20056;-84
2022/05/13 12:09:25;;;;;;;2.67;1.23;;;;;;;17.51;44.88;101145.94;5081800;28;20051;-82
2022/05/13 12:12:37;;;;;;;2.28;1.27;;;;;;;17.51;45.13;101138.00;5026657;28;20052;-83
2022/05/13 12:15:37;;;;;;;1.70;1.40;;;;;;;17.27;46.01;101151.94;5029068;28;20045;-82
2022/05/13 12:18:33;;;;;;;4.45;1.30;;;;;;;17.24;45.74;101147.63;5038452;28;20472;-83
2022/05/13 12:21:22;;;;;;;2.05;1.00;;;;;;;17.22;45.95;101146.78;5063141;28;20359;-84
2022/05/13 12:24:24;;;;;;;5.53;1.48;;;;;;;17.78;44.93;101146.03;5049304;28;20044;-82
2022/05/13 12:26:56;;;;;;;3.08;1.25;;;;;;;18.58;42.91;101147.00;5049398;28;20894;-83
2022/05/13 12:29:32;;;;;;;5.35;1.48;;;;;;;19.86;40.13;101131.69;5078192;28;20084;-83